createdAt,value
2023-04-26T00:01:58.704Z,55.24
2023-04-26T00:04:25.969Z,55.20
2023-04-26T00:06:52.826Z,55.63
2023-04-26T00:09:19.639Z,55.89
2023-04-26T00:11:46.536Z,55.62
2023-04-26T00:14:13.699Z,56.11
2023-04-26T00:16:40.504Z,56.12
2023-04-26T00:19:07.444Z,55.98
2023-04-26T00:21:34.154Z,57.03
2023-04-26T00:24:00.844Z,56.69
2023-04-26T00:26:27.611Z,56.14
2023-04-26T00:28:54.771Z,56.74
2023-04-26T00:31:21.804Z,56.56
2023-04-26T00:33:48.716Z,57.51
2023-04-26T00:36:19.108Z,57.36
2023-04-26T00:38:46.719Z,56.80
2023-04-26T00:41:14.319Z,56.93
2023-04-26T00:43:41.555Z,57.45
2023-04-26T00:46:11.358Z,57.07
2023-04-26T00:48:38.256Z,56.59
2023-04-26T00:51:06.428Z,56.81
2023-04-26T00:53:36.552Z,57.10
2023-04-26T00:56:06.664Z,56.76
2023-04-26T00:58:33.745Z,57.31
2023-04-26T01:01:00.525Z,57.75
2023-04-26T01:03:28.164Z,57.44
2023-04-26T01:05:55.226Z,58.06
2023-04-26T01:08:24.020Z,57.60
2023-04-26T01:10:50.847Z,56.86
2023-04-26T01:13:17.685Z,56.94
2023-04-26T01:15:48.280Z,57.70
2023-04-26T01:18:15.258Z,57.92
2023-04-26T01:20:42.971Z,58.22
2023-04-26T01:23:11.582Z,58.20
2023-04-26T01:25:39.395Z,57.73
2023-04-26T01:28:06.154Z,58.29
2023-04-26T01:30:33.079Z,57.60
2023-04-26T01:33:03.540Z,58.47
2023-04-26T01:35:30.455Z,58.48
2023-04-26T01:37:57.175Z,59.20
2023-04-26T01:40:24.178Z,58.49
2023-04-26T01:42:50.999Z,58.86
2023-04-26T01:45:17.766Z,59.00
2023-04-26T01:48:02.798Z,58.71
2023-04-26T01:50:32.408Z,59.73
2023-04-26T01:52:59.060Z,59.36
2023-04-26T01:55:25.867Z,59.08
2023-04-26T01:57:52.574Z,59.97
2023-04-26T02:00:19.602Z,59.89
2023-04-26T02:02:49.732Z,59.69
2023-04-26T02:05:16.568Z,59.93
2023-04-26T02:07:43.284Z,60.33
2023-04-26T02:10:10.345Z,60.17
2023-04-26T02:12:37.235Z,61.14
2023-04-26T02:15:04.707Z,60.91
2023-04-26T02:17:35.211Z,60.88
2023-04-26T02:20:01.935Z,61.52
2023-04-26T02:22:32.547Z,61.59
2023-04-26T02:24:59.247Z,61.84
2023-04-26T02:27:33.025Z,61.23
2023-04-26T02:30:01.317Z,61.70
2023-04-26T02:32:32.079Z,63.21
2023-04-26T02:34:58.758Z,62.73
2023-04-26T02:37:25.735Z,62.96
2023-04-26T02:39:52.685Z,63.19
2023-04-26T02:42:19.580Z,62.25
2023-04-26T02:44:47.031Z,62.75
2023-04-26T02:47:14.000Z,63.09
2023-04-26T02:49:40.797Z,62.63
2023-04-26T02:52:07.596Z,62.07
2023-04-26T02:54:35.045Z,63.23
2023-04-26T02:57:01.765Z,63.49
2023-04-26T02:59:28.562Z,63.36
2023-04-26T03:01:55.687Z,63.53
2023-04-26T03:04:23.559Z,63.52
2023-04-26T03:06:50.328Z,63.69
2023-04-26T03:09:17.721Z,63.18
2023-04-26T03:11:44.398Z,64.60
2023-04-26T03:14:11.061Z,64.96
2023-04-26T03:16:43.043Z,63.37
2023-04-26T03:19:10.109Z,64.25
2023-04-26T03:21:38.334Z,63.50
2023-04-26T03:24:05.812Z,64.02
2023-04-26T03:26:33.352Z,63.97
2023-04-26T03:29:00.127Z,63.35
2023-04-26T03:31:27.285Z,64.50
2023-04-26T03:33:54.248Z,65.04
2023-04-26T03:36:20.991Z,65.59
2023-04-26T03:38:47.740Z,65.56
2023-04-26T03:41:16.689Z,66.09
2023-04-26T03:43:43.475Z,66.30
2023-04-26T03:46:10.316Z,66.11
2023-04-26T03:48:38.723Z,65.89
2023-04-26T03:51:08.695Z,66.26
2023-04-26T03:53:35.465Z,66.45
2023-04-26T03:56:02.293Z,65.69
2023-04-26T03:58:30.628Z,66.18
2023-04-26T04:00:58.430Z,65.75
2023-04-26T04:03:25.496Z,66.05
2023-04-26T04:05:52.368Z,65.81
2023-04-26T04:08:19.086Z,65.83
2023-04-26T04:10:45.800Z,66.21
2023-04-26T04:13:12.458Z,66.97
2023-04-26T04:15:39.197Z,66.46
2023-04-26T04:18:06.338Z,66.93
2023-04-26T04:20:33.172Z,66.33
2023-04-26T04:23:02.064Z,67.23
2023-04-26T04:25:29.040Z,66.97
2023-04-26T04:27:59.816Z,67.02
2023-04-26T04:30:26.488Z,67.02
2023-04-26T04:32:53.628Z,66.71
2023-04-26T04:35:20.825Z,67.54
2023-04-26T04:37:50.017Z,67.14
2023-04-26T04:40:17.022Z,67.35
2023-04-26T04:42:47.086Z,66.34
2023-04-26T04:45:15.594Z,66.90
2023-04-26T04:47:43.125Z,66.72
2023-04-26T04:50:10.244Z,66.70
2023-04-26T04:52:37.807Z,67.10
2023-04-26T04:55:04.974Z,66.80
2023-04-26T04:57:32.697Z,66.10
2023-04-26T05:00:03.625Z,66.21
2023-04-26T05:02:31.980Z,65.60
2023-04-26T05:04:59.417Z,66.97
2023-04-26T05:07:27.919Z,66.23
2023-04-26T05:09:56.192Z,66.11
2023-04-26T05:12:23.722Z,66.55
2023-04-26T05:14:51.144Z,66.60
2023-04-26T05:17:17.924Z,66.07
2023-04-26T05:19:45.657Z,66.35
2023-04-26T05:22:18.157Z,66.11
2023-04-26T05:24:47.494Z,64.70
2023-04-26T05:27:15.114Z,64.21
2023-04-26T05:29:48.930Z,63.97
2023-04-26T05:32:38.756Z,64.04
2023-04-26T05:35:18.840Z,64.55
2023-04-26T05:37:45.799Z,64.76
2023-04-26T05:40:14.095Z,64.59
2023-04-26T05:42:40.801Z,64.81
2023-04-26T05:45:10.123Z,63.40
2023-04-26T05:47:37.302Z,62.74
2023-04-26T05:50:04.286Z,63.15
2023-04-26T05:52:32.600Z,62.71
2023-04-26T05:54:59.618Z,61.75
2023-04-26T05:57:26.668Z,62.37
2023-04-26T05:59:53.283Z,63.09
2023-04-26T06:02:21.240Z,61.44
2023-04-26T06:04:48.154Z,61.09
2023-04-26T06:07:19.841Z,61.42
2023-04-26T06:09:47.483Z,60.59
2023-04-26T06:12:14.757Z,60.01
2023-04-26T06:14:44.381Z,60.70
2023-04-26T06:17:15.893Z,59.79
2023-04-26T06:19:43.178Z,60.53
2023-04-26T06:22:09.820Z,60.93
2023-04-26T06:24:36.539Z,59.00
2023-04-26T06:27:03.426Z,59.16
2023-04-26T06:29:32.865Z,59.28
2023-04-26T06:31:59.563Z,58.17
2023-04-26T06:34:27.108Z,58.30
2023-04-26T06:36:53.781Z,58.81
2023-04-26T06:39:22.767Z,58.33
2023-04-26T06:41:51.963Z,58.05
2023-04-26T06:44:27.016Z,57.44
2023-04-26T06:47:01.545Z,57.10
2023-04-26T06:49:28.396Z,55.89
2023-04-26T06:51:55.150Z,55.91
2023-04-26T06:54:21.857Z,55.97
2023-04-26T06:56:48.530Z,55.04
2023-04-26T06:59:15.368Z,53.78
2023-04-26T07:01:42.354Z,53.52
2023-04-26T07:04:10.930Z,52.24
2023-04-26T07:06:39.130Z,52.96
2023-04-26T07:09:05.813Z,52.50
2023-04-26T07:11:32.444Z,52.48
2023-04-26T07:13:59.243Z,51.78
2023-04-26T07:16:27.407Z,52.07
2023-04-26T07:18:58.021Z,53.22
2023-04-26T07:21:25.539Z,52.16
2023-04-26T07:23:58.406Z,51.25
2023-04-26T07:26:29.659Z,52.49
2023-04-26T07:28:56.583Z,52.56
2023-04-26T07:31:23.262Z,50.87
2023-04-26T07:33:50.117Z,51.22
2023-04-26T07:36:16.835Z,51.54
2023-04-26T07:38:43.701Z,51.63
2023-04-26T07:41:10.484Z,50.69
2023-04-26T07:43:37.843Z,50.92
2023-04-26T07:46:04.626Z,50.41
2023-04-26T07:48:31.453Z,49.34
2023-04-26T07:51:07.277Z,48.47
2023-04-26T07:53:34.016Z,47.55
2023-04-26T07:56:00.728Z,46.94
2023-04-26T07:58:27.422Z,49.75
2023-04-26T08:00:55.061Z,48.02
2023-04-26T08:03:21.866Z,47.89
2023-04-26T08:05:48.856Z,46.64
2023-04-26T08:08:17.155Z,48.94
2023-04-26T08:10:45.207Z,48.38
2023-04-26T08:13:12.025Z,47.32
2023-04-26T08:15:38.778Z,44.60
2023-04-26T08:18:05.703Z,45.59
2023-04-26T08:20:32.794Z,45.44
2023-04-26T08:23:00.114Z,44.56
2023-04-26T08:25:27.257Z,45.74
2023-04-26T08:27:54.201Z,45.46
2023-04-26T08:30:21.403Z,45.79
2023-04-26T08:32:49.110Z,44.40
2023-04-26T08:35:15.803Z,42.51
2023-04-26T08:37:42.456Z,40.70
2023-04-26T08:40:12.130Z,42.20
2023-04-26T08:42:43.867Z,40.89
2023-04-26T08:45:11.677Z,42.30
2023-04-26T08:47:45.077Z,41.21
2023-04-26T08:50:14.802Z,40.50
2023-04-26T08:52:43.027Z,41.87
2023-04-26T08:55:10.709Z,39.02
2023-04-26T08:57:38.068Z,38.70
2023-04-26T09:00:06.184Z,37.70
2023-04-26T09:02:35.136Z,39.80
2023-04-26T09:05:02.036Z,40.27
2023-04-26T09:07:46.339Z,39.18
2023-04-26T09:10:14.469Z,38.30
2023-04-26T09:12:41.252Z,37.21
2023-04-26T09:15:08.835Z,38.36
2023-04-26T09:17:41.461Z,39.06
2023-04-26T09:20:25.932Z,37.77
2023-04-26T09:23:03.636Z,37.74
2023-04-26T09:25:32.034Z,38.31
2023-04-26T09:27:59.536Z,39.11
2023-04-26T09:30:27.274Z,39.19
2023-04-26T09:32:58.424Z,41.63
2023-04-26T09:35:35.528Z,41.96
2023-04-26T09:38:09.025Z,41.71
2023-04-26T09:40:42.084Z,41.67
2023-04-26T09:43:14.287Z,41.74
2023-04-26T09:45:55.354Z,38.71
2023-04-26T09:48:25.785Z,39.34
2023-04-26T09:50:54.417Z,41.49
2023-04-26T09:53:31.767Z,42.39
2023-04-26T09:56:13.329Z,42.37
2023-04-26T09:59:05.601Z,41.85
2023-04-26T10:01:34.906Z,41.20
2023-04-26T10:04:02.049Z,42.09
2023-04-26T10:06:29.367Z,41.60
2023-04-26T10:08:57.014Z,41.15
2023-04-26T10:11:26.228Z,41.06
2023-04-26T10:13:53.156Z,40.82
2023-04-26T10:16:21.487Z,40.68
2023-04-26T10:18:49.294Z,40.82
2023-04-26T10:21:29.665Z,40.46
2023-04-26T10:23:56.569Z,37.57
2023-04-26T10:26:53.141Z,38.76
2023-04-26T10:29:54.727Z,37.69
2023-04-26T10:32:22.521Z,35.67
2023-04-26T10:35:13.643Z,37.96
2023-04-26T10:38:02.208Z,36.73
2023-04-26T10:40:36.174Z,39.84
2023-04-26T10:43:08.930Z,40.95
2023-04-26T10:45:36.747Z,37.78
2023-04-26T10:48:22.707Z,36.82
2023-04-26T10:51:01.901Z,36.60
2023-04-26T10:53:32.671Z,37.75
2023-04-26T10:55:59.595Z,36.94
2023-04-26T10:58:34.058Z,37.32
2023-04-26T11:01:06.284Z,35.96
2023-04-26T11:03:33.450Z,37.53
2023-04-26T11:06:00.699Z,36.70
2023-04-26T11:08:30.596Z,37.91
2023-04-26T11:11:03.414Z,37.62
2023-04-26T11:13:41.383Z,36.51
2023-04-26T11:16:10.626Z,38.55
2023-04-26T11:18:39.263Z,39.11
2023-04-26T11:21:07.042Z,37.58
2023-04-26T11:23:35.302Z,36.39
2023-04-26T11:26:04.669Z,36.41
2023-04-26T11:28:34.473Z,35.66
2023-04-26T11:31:04.091Z,35.53
2023-04-26T11:33:31.330Z,35.97
2023-04-26T11:35:58.645Z,35.74
2023-04-26T11:38:27.099Z,35.67
2023-04-26T11:41:03.121Z,35.26
2023-04-26T11:43:40.077Z,35.39
2023-04-26T11:46:08.515Z,36.18
2023-04-26T11:48:36.714Z,34.81
2023-04-26T11:51:05.246Z,35.71
2023-04-26T11:53:42.041Z,35.91
2023-04-26T11:56:16.704Z,36.49
2023-04-26T11:58:48.492Z,34.81
2023-04-26T12:01:23.040Z,36.15
2023-04-26T12:03:57.627Z,36.49
2023-04-26T12:06:45.465Z,34.27
2023-04-26T12:09:13.074Z,34.93
2023-04-26T12:11:40.177Z,34.89
2023-04-26T12:14:09.721Z,35.05
2023-04-26T12:16:37.352Z,35.11
2023-04-26T12:19:08.782Z,34.43
2023-04-26T12:21:42.800Z,34.39
2023-04-26T12:24:25.084Z,34.21
2023-04-26T12:26:52.239Z,35.36
2023-04-26T12:29:18.986Z,36.02
2023-04-26T12:31:46.668Z,37.51
2023-04-26T12:34:13.454Z,36.64
2023-04-26T12:36:43.290Z,37.13
2023-04-26T12:39:14.467Z,34.89
2023-04-26T12:41:42.576Z,34.69
2023-04-26T12:44:10.813Z,34.78
2023-04-26T12:46:38.081Z,36.65
2023-04-26T12:49:04.913Z,47.42
2023-04-26T12:51:34.428Z,33.89
2023-04-26T12:54:01.093Z,34.37
2023-04-26T12:56:29.274Z,33.39
2023-04-26T12:58:56.135Z,33.07
2023-04-26T13:01:22.975Z,34.01
2023-04-26T13:03:49.948Z,34.20
2023-04-26T13:06:17.259Z,35.24
2023-04-26T13:08:44.024Z,35.79
2023-04-26T13:11:10.674Z,34.95
2023-04-26T13:13:43.778Z,35.17
2023-04-26T13:16:12.530Z,34.78
2023-04-26T13:18:40.188Z,36.47
2023-04-26T13:21:07.080Z,38.91
2023-04-26T13:23:33.748Z,34.26
2023-04-26T13:26:00.540Z,35.79
2023-04-26T13:28:27.280Z,35.14
2023-04-26T13:30:53.991Z,34.83
2023-04-26T13:33:21.326Z,34.48
2023-04-26T13:35:48.440Z,33.24
2023-04-26T13:38:16.371Z,33.95
2023-04-26T13:40:44.039Z,40.47
2023-04-26T13:43:10.816Z,34.25
2023-04-26T13:45:37.505Z,32.93
2023-04-26T13:48:04.544Z,32.43
2023-04-26T13:50:31.328Z,31.88
2023-04-26T13:52:58.031Z,31.83
2023-04-26T13:55:25.620Z,32.06
2023-04-26T13:57:52.283Z,32.46
2023-04-26T14:00:19.291Z,33.29
2023-04-26T14:02:47.482Z,33.82
2023-04-26T14:05:14.380Z,32.04
2023-04-26T14:07:41.614Z,34.69
2023-04-26T14:10:09.042Z,31.18
2023-04-26T14:12:39.123Z,32.17
2023-04-26T14:15:06.639Z,31.00
2023-04-26T14:17:34.153Z,32.98
2023-04-26T14:20:01.168Z,31.52
2023-04-26T14:22:30.852Z,31.94
2023-04-26T14:24:57.773Z,30.77
2023-04-26T14:27:24.529Z,31.88
2023-04-26T14:29:51.171Z,30.86
2023-04-26T14:32:17.895Z,30.61
2023-04-26T14:34:44.609Z,30.55
2023-04-26T14:37:11.625Z,31.46
2023-04-26T14:39:38.322Z,31.06
2023-04-26T14:42:05.228Z,31.96
2023-04-26T14:44:32.057Z,31.71
2023-04-26T14:46:58.725Z,33.33
2023-04-26T14:49:25.683Z,33.45
2023-04-26T14:51:53.584Z,33.41
2023-04-26T14:54:21.058Z,33.55
2023-04-26T14:56:48.377Z,33.24
2023-04-26T14:59:15.143Z,32.50
2023-04-26T15:01:42.070Z,30.61
2023-04-26T15:04:09.002Z,28.16
2023-04-26T15:06:36.064Z,24.26
2023-04-26T15:09:03.701Z,27.27
2023-04-26T15:11:30.566Z,23.83
2023-04-26T15:13:57.188Z,20.16
2023-04-26T15:16:23.925Z,20.19
2023-04-26T15:18:50.769Z,16.35
2023-04-26T15:21:18.159Z,16.05
2023-04-26T15:23:45.093Z,18.91
2023-04-26T15:26:11.894Z,21.72
2023-04-26T15:28:38.621Z,25.39
2023-04-26T15:31:08.756Z,27.45
2023-04-26T15:33:36.312Z,30.45
2023-04-26T15:36:03.466Z,30.54
2023-04-26T15:38:30.167Z,31.66
2023-04-26T15:40:56.912Z,30.54
2023-04-26T15:43:23.568Z,31.45
2023-04-26T15:45:50.646Z,31.37
2023-04-26T15:48:17.501Z,32.93
2023-04-26T15:50:44.196Z,32.58
2023-04-26T15:53:10.988Z,33.08
2023-04-26T15:55:37.791Z,31.99
2023-04-26T15:58:04.516Z,32.29
2023-04-26T16:00:32.008Z,31.88
2023-04-26T16:02:58.871Z,35.52
2023-04-26T16:05:26.326Z,35.10
2023-04-26T16:07:53.043Z,32.91
2023-04-26T16:10:19.930Z,33.53
2023-04-26T16:12:47.259Z,33.37
2023-04-26T16:15:14.442Z,33.56
2023-04-26T16:17:41.576Z,33.51
2023-04-26T16:20:10.103Z,34.03
2023-04-26T16:22:37.065Z,34.10
2023-04-26T16:25:06.642Z,34.21
2023-04-26T16:27:33.798Z,33.88
2023-04-26T16:30:00.609Z,33.64
2023-04-26T16:32:27.553Z,33.91
2023-04-26T16:34:54.379Z,34.06
2023-04-26T16:37:21.270Z,33.93
2023-04-26T16:39:48.040Z,33.99
2023-04-26T16:42:15.006Z,34.35
2023-04-26T16:44:41.902Z,34.79
2023-04-26T16:47:08.727Z,34.56
2023-04-26T16:49:35.551Z,34.05
2023-04-26T16:52:02.834Z,34.74
2023-04-26T16:54:29.594Z,34.79
2023-04-26T16:56:56.867Z,34.50
2023-04-26T16:59:23.654Z,34.93
2023-04-26T17:01:50.746Z,36.04
2023-04-26T17:04:18.217Z,35.29
2023-04-26T17:06:45.453Z,35.64
2023-04-26T17:09:13.840Z,36.43
2023-04-26T17:11:43.504Z,35.50
2023-04-26T17:14:11.144Z,35.76
2023-04-26T17:16:39.065Z,36.62
2023-04-26T17:19:06.799Z,36.45
2023-04-26T17:21:33.532Z,36.02
2023-04-26T17:24:00.515Z,36.19
2023-04-26T17:26:27.701Z,35.74
2023-04-26T17:28:54.569Z,35.64
2023-04-26T17:31:21.932Z,36.76
2023-04-26T17:33:48.981Z,36.25
2023-04-26T17:36:16.220Z,36.51
2023-04-26T17:38:42.972Z,35.86
2023-04-26T17:41:12.263Z,36.15
2023-04-26T17:43:38.949Z,35.69
2023-04-26T17:46:05.702Z,36.37
2023-04-26T17:48:32.628Z,36.53
2023-04-26T17:50:59.369Z,35.83
2023-04-26T17:53:26.435Z,36.40
2023-04-26T17:55:53.290Z,35.96
2023-04-26T17:58:20.202Z,35.94
2023-04-26T18:00:48.476Z,36.27
2023-04-26T18:03:15.528Z,36.22
2023-04-26T18:05:42.428Z,36.29
2023-04-26T18:08:09.249Z,36.57
2023-04-26T18:10:35.966Z,36.57
2023-04-26T18:13:02.763Z,36.63
2023-04-26T18:15:29.669Z,37.56
2023-04-26T18:17:56.465Z,36.71
2023-04-26T18:20:23.300Z,36.88
2023-04-26T18:22:50.005Z,37.28
2023-04-26T18:25:16.933Z,37.36
2023-04-26T18:27:43.946Z,37.11
2023-04-26T18:30:12.733Z,37.46
2023-04-26T18:32:39.539Z,37.78
2023-04-26T18:35:07.236Z,37.48
2023-04-26T18:37:33.968Z,36.90
2023-04-26T18:40:00.991Z,37.15
2023-04-26T18:42:28.333Z,37.65
2023-04-26T18:44:56.438Z,37.54
2023-04-26T18:47:23.140Z,37.63
2023-04-26T18:49:49.799Z,37.87
2023-04-26T18:52:16.842Z,37.90
2023-04-26T18:54:43.579Z,37.85
2023-04-26T18:57:10.677Z,37.76
2023-04-26T18:59:38.760Z,37.27
2023-04-26T19:02:05.717Z,37.67
2023-04-26T19:04:32.640Z,37.39
2023-04-26T19:07:00.850Z,37.91
2023-04-26T19:09:27.610Z,37.88
2023-04-26T19:11:54.288Z,38.86
2023-04-26T19:14:20.996Z,39.22
2023-04-26T19:16:48.814Z,38.72
2023-04-26T19:19:16.288Z,38.99
2023-04-26T19:21:42.969Z,38.31
2023-04-26T19:24:09.701Z,38.44
2023-04-26T19:26:37.205Z,38.28
2023-04-26T19:29:06.159Z,38.83
2023-04-26T19:31:33.951Z,37.88
2023-04-26T19:34:00.972Z,37.81
2023-04-26T19:36:28.709Z,38.56
2023-04-26T19:38:55.494Z,38.17
2023-04-26T19:41:23.859Z,38.02
2023-04-26T19:43:51.447Z,38.50
2023-04-26T19:46:18.514Z,38.77
2023-04-26T19:48:45.888Z,38.36
2023-04-26T19:51:16.854Z,38.54
2023-04-26T19:53:44.476Z,38.70
2023-04-26T19:56:11.353Z,38.32
2023-04-26T19:58:39.181Z,39.03
2023-04-26T20:01:06.066Z,39.26
2023-04-26T20:03:33.205Z,39.20
2023-04-26T20:06:00.385Z,38.90
2023-04-26T20:08:27.614Z,39.06
2023-04-26T20:10:55.123Z,39.53
2023-04-26T20:13:22.250Z,40.15
2023-04-26T20:15:48.999Z,40.67
2023-04-26T20:18:15.858Z,40.16
2023-04-26T20:20:42.551Z,39.51
2023-04-26T20:23:10.797Z,39.88
2023-04-26T20:25:37.576Z,40.64
2023-04-26T20:28:04.576Z,40.55
2023-04-26T20:30:33.660Z,40.99
2023-04-26T20:33:00.693Z,40.93
2023-04-26T20:35:27.680Z,40.29
2023-04-26T20:37:54.566Z,40.25
2023-04-26T20:40:22.057Z,40.69
2023-04-26T20:42:48.750Z,40.62
2023-04-26T20:45:16.557Z,40.88
2023-04-26T20:47:44.313Z,41.09
2023-04-26T20:50:11.677Z,40.74
2023-04-26T20:52:38.531Z,41.26
2023-04-26T20:55:06.134Z,41.57
2023-04-26T20:57:32.837Z,40.93
2023-04-26T20:59:59.815Z,40.89
2023-04-26T21:02:26.689Z,40.91
2023-04-26T21:04:53.890Z,41.48
2023-04-26T21:07:20.686Z,41.04
2023-04-26T21:09:47.378Z,40.50
2023-04-26T21:12:14.068Z,41.04
2023-04-26T21:14:41.047Z,41.65
2023-04-26T21:17:07.830Z,41.75
2023-04-26T21:19:34.489Z,42.34
2023-04-26T21:22:01.629Z,42.01
2023-04-26T21:24:28.345Z,42.80
2023-04-26T21:26:55.057Z,43.22
2023-04-26T21:29:21.932Z,42.75
2023-04-26T21:31:48.703Z,43.58
2023-04-26T21:34:15.770Z,43.91
2023-04-26T21:36:42.535Z,43.57
2023-04-26T21:39:09.938Z,43.87
2023-04-26T21:41:36.981Z,44.71
2023-04-26T21:44:03.918Z,44.48
2023-04-26T21:46:30.775Z,44.88
2023-04-26T21:48:57.988Z,44.30
2023-04-26T21:51:24.829Z,44.95
2023-04-26T21:53:51.690Z,44.86
2023-04-26T21:56:18.469Z,44.96
2023-04-26T21:58:45.140Z,45.52
2023-04-26T22:01:15.062Z,45.59
2023-04-26T22:03:41.994Z,45.71
2023-04-26T22:06:09.473Z,45.63
2023-04-26T22:08:36.804Z,45.57
2023-04-26T22:11:04.014Z,46.00
2023-04-26T22:13:32.242Z,45.87
2023-04-26T22:15:58.990Z,46.51
2023-04-26T22:18:29.279Z,46.24
2023-04-26T22:20:56.148Z,47.15
2023-04-26T22:23:22.855Z,46.79
2023-04-26T22:25:49.623Z,46.54
2023-04-26T22:28:16.460Z,47.12
2023-04-26T22:30:43.179Z,47.15
2023-04-26T22:33:11.000Z,47.53
2023-04-26T22:35:38.237Z,47.58
2023-04-26T22:38:04.898Z,47.33
2023-04-26T22:40:32.607Z,47.70
2023-04-26T22:42:59.561Z,47.64
2023-04-26T22:45:26.445Z,49.07
2023-04-26T22:47:53.242Z,48.53
2023-04-26T22:50:20.854Z,48.51
2023-04-26T22:52:47.632Z,48.44
2023-04-26T22:55:14.417Z,48.58
2023-04-26T22:57:41.204Z,47.43
2023-04-26T23:00:12.611Z,47.66
2023-04-26T23:02:39.834Z,48.69
2023-04-26T23:05:09.995Z,50.73
2023-04-26T23:07:38.045Z,50.17
2023-04-26T23:10:05.704Z,50.48
2023-04-26T23:12:33.314Z,49.82
2023-04-26T23:14:59.970Z,49.40
2023-04-26T23:17:26.889Z,49.66
2023-04-26T23:19:54.513Z,49.33
2023-04-26T23:22:21.274Z,50.88
2023-04-26T23:24:48.014Z,50.57
2023-04-26T23:27:14.944Z,50.37
2023-04-26T23:29:43.041Z,49.94
2023-04-26T23:32:09.806Z,50.34
2023-04-26T23:34:36.540Z,50.41
2023-04-26T23:37:07.374Z,50.56
2023-04-26T23:39:35.911Z,51.71
2023-04-26T23:42:03.692Z,52.96
2023-04-26T23:44:30.537Z,52.28
2023-04-26T23:46:57.369Z,53.19
2023-04-26T23:49:24.431Z,53.10
2023-04-26T23:51:53.475Z,53.35
2023-04-26T23:54:20.323Z,53.97
2023-04-26T23:56:47.006Z,53.56
2023-04-26T23:59:14.436Z,53.08
